createdAt,value
2022-09-27T00:15:38.917Z,1.00
2022-09-27T00:26:40.296Z,1.00
2022-09-27T00:32:41.022Z,1.00
2022-09-27T00:37:48.011Z,1.00
2022-09-27T00:54:50.350Z,1.00
2022-09-27T01:00:27.540Z,1.00
2022-09-27T01:06:04.359Z,1.00
2022-09-27T01:12:41.089Z,1.00
2022-09-27T01:30:18.022Z,1.00
2022-09-27T01:35:21.103Z,1.00
2022-09-27T01:40:41.871Z,1.00
2022-09-27T01:46:16.353Z,1.00
2022-09-27T01:51:54.881Z,1.00
2022-09-27T01:56:47.472Z,1.00
2022-09-27T02:02:02.236Z,1.00
2022-09-27T02:07:10.047Z,1.00
2022-09-27T02:11:58.735Z,1.00
2022-09-27T02:16:58.660Z,1.00
2022-09-27T02:22:00.728Z,1.00
2022-09-27T02:27:09.534Z,1.00
2022-09-27T02:31:53.280Z,1.00
2022-09-27T02:36:46.202Z,1.00
2022-09-27T02:41:30.168Z,1.00
2022-09-27T02:46:53.777Z,1.00
2022-09-27T02:51:57.700Z,1.00
2022-09-27T03:02:34.862Z,1.00
2022-09-27T03:07:56.610Z,1.00
2022-09-27T03:12:42.313Z,1.00
2022-09-27T03:17:29.542Z,1.00
2022-09-27T03:33:31.552Z,1.00
2022-09-27T03:38:50.742Z,27.10
2022-09-27T03:43:56.790Z,36.90
2022-09-27T03:48:44.112Z,99.90
2022-09-27T03:53:36.427Z,99.90
2022-09-27T04:09:52.632Z,1.00
2022-09-27T04:14:50.306Z,99.90
2022-09-27T04:42:17.449Z,99.90
2022-09-27T04:51:55.141Z,1.00
2022-09-27T04:56:42.545Z,1.00
2022-09-27T05:01:30.203Z,1.00
2022-09-27T05:06:19.647Z,1.00
2022-09-27T05:11:06.592Z,1.00
2022-09-27T05:15:53.688Z,99.90
2022-09-27T05:20:59.238Z,99.90
2022-09-27T05:26:05.266Z,99.90
2022-09-27T05:30:49.453Z,99.90
2022-09-27T05:35:44.601Z,99.90
2022-09-27T05:40:44.667Z,99.90
2022-09-27T05:45:33.725Z,99.90
2022-09-27T05:50:34.291Z,99.90
2022-09-27T05:55:27.155Z,99.90
2022-09-27T06:00:12.019Z,99.90
2022-09-27T06:04:58.957Z,99.90
2022-09-27T06:10:06.344Z,99.90
2022-09-27T06:21:02.224Z,99.90
2022-09-27T06:33:27.357Z,99.90
2022-09-27T06:39:39.106Z,99.90
2022-09-27T06:45:28.789Z,99.90
2022-09-27T06:50:38.293Z,99.90
2022-09-27T06:55:25.456Z,99.90
2022-09-27T07:00:27.206Z,99.90
2022-09-27T07:05:34.442Z,99.90
2022-09-27T07:10:51.356Z,99.90
2022-09-27T07:15:40.965Z,94.20
2022-09-27T07:20:41.352Z,41.70
2022-09-27T07:25:32.882Z,65.50
2022-09-27T08:48:33.069Z,1.00
2022-09-27T09:54:11.820Z,1.00
2022-09-27T10:12:15.409Z,1.00
2022-09-27T10:30:59.183Z,1.00
2022-09-27T11:41:39.292Z,1.00
2022-09-27T11:53:39.106Z,1.00
2022-09-27T13:57:55.426Z,1.00
2022-09-27T14:16:29.901Z,1.00
2022-09-27T14:21:38.541Z,1.00
2022-09-27T14:27:23.833Z,1.00
2022-09-27T14:32:28.088Z,1.00
2022-09-27T14:37:35.609Z,1.00
2022-09-27T14:42:41.314Z,1.00
2022-09-27T14:47:29.786Z,1.00
2022-09-27T14:52:21.671Z,1.00
2022-09-27T15:02:28.235Z,1.00
2022-09-27T15:07:11.921Z,1.00
2022-09-27T15:12:05.616Z,1.00
2022-09-27T15:16:52.957Z,1.00
2022-09-27T15:21:39.935Z,1.00
2022-09-27T15:26:39.580Z,1.00
2022-09-27T15:31:31.151Z,1.00
2022-09-27T15:36:18.422Z,1.00
2022-09-27T15:41:20.068Z,1.00
2022-09-27T15:46:29.173Z,1.00
2022-09-27T15:51:48.719Z,1.00
2022-09-27T15:56:37.929Z,1.00
2022-09-27T16:01:56.073Z,1.00
2022-09-27T16:06:42.749Z,1.00
2022-09-27T16:11:26.431Z,1.00
2022-09-27T16:16:30.295Z,1.00
2022-09-27T16:21:23.105Z,1.00
2022-09-27T16:26:07.597Z,1.00
2022-09-27T16:30:55.390Z,1.00
2022-09-27T16:35:44.848Z,1.00
2022-09-27T16:40:32.272Z,1.00
2022-09-27T16:45:19.816Z,44.80
2022-09-27T16:50:25.454Z,99.90
2022-09-27T16:55:10.845Z,99.90
2022-09-27T17:00:04.516Z,99.90
2022-09-27T17:04:50.232Z,99.90
2022-09-27T17:09:35.091Z,99.90
2022-09-27T17:14:29.806Z,1.00
2022-09-27T17:19:29.303Z,1.00
2022-09-27T17:24:16.489Z,1.00
2022-09-27T17:29:05.326Z,1.00
2022-09-27T17:33:57.614Z,99.90
2022-09-27T17:38:56.773Z,1.00
2022-09-27T17:44:00.560Z,1.00
2022-09-27T17:49:05.873Z,1.00
2022-09-27T17:53:53.361Z,99.90
2022-09-27T17:58:56.164Z,99.90
2022-09-27T18:03:45.627Z,1.00
2022-09-27T18:08:32.428Z,99.90
2022-09-27T18:13:22.097Z,1.00
2022-09-27T18:18:39.463Z,1.00
2022-09-27T18:23:30.999Z,41.80
2022-09-27T18:28:50.265Z,1.00
2022-09-27T18:33:40.852Z,99.90
2022-09-27T18:38:38.796Z,99.90
2022-09-27T18:43:36.548Z,99.90
2022-09-27T18:49:22.322Z,99.90
2022-09-27T18:54:54.865Z,99.90
2022-09-27T19:00:21.385Z,99.90
2022-09-27T19:05:40.462Z,99.90
2022-09-27T19:10:42.353Z,99.90
2022-09-27T19:15:48.615Z,99.90
2022-09-27T19:21:10.317Z,99.90
2022-09-27T19:26:22.088Z,77.80
2022-09-27T19:32:21.982Z,99.90
2022-09-27T19:37:36.889Z,74.90
2022-09-27T19:42:24.104Z,92.00
2022-09-27T19:47:11.862Z,99.90
2022-09-27T19:52:14.740Z,99.90
2022-09-27T19:57:25.194Z,99.90
2022-09-27T20:02:11.333Z,99.90
2022-09-27T20:07:42.153Z,99.90
2022-09-27T20:13:04.953Z,1.00
2022-09-27T20:18:24.767Z,99.90
2022-09-27T20:23:48.249Z,99.90
2022-09-27T21:04:15.139Z,55.00
2022-09-27T23:55:12.197Z,1.00
